createdAt,value
2022-09-01T00:01:27.363Z,15.27
2022-09-01T00:03:55.922Z,17.90
2022-09-01T00:06:24.845Z,15.90
2022-09-01T00:08:54.704Z,14.18
2022-09-01T00:11:23.671Z,14.55
2022-09-01T00:16:20.031Z,22.63
2022-09-01T00:18:50.683Z,15.82
2022-09-01T00:21:30.510Z,17.75
2022-09-01T00:23:58.026Z,18.63
2022-09-01T00:26:24.996Z,21.65
2022-09-01T00:28:52.034Z,23.73
2022-09-01T00:31:20.302Z,22.90
2022-09-01T00:33:49.183Z,18.23
2022-09-01T00:36:17.775Z,22.70
2022-09-01T00:38:45.307Z,19.05
2022-09-01T00:41:13.267Z,20.65
2022-09-01T00:43:50.549Z,21.92
2022-09-01T00:46:30.428Z,23.27
2022-09-01T00:49:03.282Z,19.83
2022-09-01T00:51:33.460Z,18.42
2022-09-01T00:54:01.851Z,18.80
2022-09-01T00:56:30.690Z,19.85
2022-09-01T00:58:57.834Z,19.13
2022-09-01T01:01:24.824Z,19.95
2022-09-01T01:03:52.495Z,23.70
2022-09-01T01:06:23.949Z,19.17
2022-09-01T01:08:57.979Z,21.48
2022-09-01T01:11:28.160Z,20.13
2022-09-01T01:14:15.689Z,23.48
2022-09-01T01:16:45.394Z,21.75
2022-09-01T01:19:49.240Z,20.58
2022-09-01T01:23:05.695Z,21.33
2022-09-01T01:25:40.594Z,19.35
2022-09-01T01:28:22.519Z,20.80
2022-09-01T01:30:56.190Z,20.92
2022-09-01T01:33:33.084Z,19.63
2022-09-01T01:36:02.106Z,20.48
2022-09-01T01:38:30.435Z,23.27
2022-09-01T01:40:58.922Z,22.85
2022-09-01T01:43:27.763Z,34.50
2022-09-01T01:45:59.320Z,23.85
2022-09-01T01:48:34.759Z,25.08
2022-09-01T01:51:02.583Z,21.20
2022-09-01T01:53:29.818Z,24.38
2022-09-01T01:55:59.174Z,22.08
2022-09-01T01:58:30.566Z,25.98
2022-09-01T02:00:59.258Z,24.30
2022-09-01T02:03:31.249Z,24.50
2022-09-01T02:06:01.371Z,26.88
2022-09-01T02:08:28.463Z,23.77
2022-09-01T02:10:57.981Z,24.38
2022-09-01T02:13:31.412Z,23.42
2022-09-01T02:16:02.256Z,25.17
2022-09-01T02:18:38.581Z,22.73
2022-09-01T02:21:16.413Z,21.50
2022-09-01T02:23:48.982Z,20.23
2022-09-01T02:26:19.210Z,21.33
2022-09-01T02:28:54.895Z,22.35
2022-09-01T02:31:28.332Z,26.60
2022-09-01T02:33:57.554Z,22.50
2022-09-01T02:36:25.873Z,19.13
2022-09-01T02:38:55.224Z,18.52
2022-09-01T02:41:25.350Z,19.00
2022-09-01T02:43:54.375Z,20.85
2022-09-01T02:46:24.916Z,20.83
2022-09-01T02:48:53.503Z,20.08
2022-09-01T02:51:25.925Z,22.92
2022-09-01T02:53:53.774Z,19.92
2022-09-01T02:56:25.931Z,19.23
2022-09-01T02:58:54.580Z,19.23
2022-09-01T03:01:30.385Z,21.50
2022-09-01T03:04:05.955Z,20.73
2022-09-01T03:06:34.783Z,22.58
2022-09-01T03:09:04.467Z,25.40
2022-09-01T03:11:34.509Z,22.25
2022-09-01T03:14:01.740Z,23.27
2022-09-01T03:16:33.388Z,23.73
2022-09-01T03:19:03.424Z,30.65
2022-09-01T03:21:32.279Z,25.90
2022-09-01T03:24:02.272Z,24.80
2022-09-01T03:26:30.775Z,26.98
2022-09-01T03:28:59.306Z,27.93
2022-09-01T03:31:31.107Z,32.67
2022-09-01T03:34:01.045Z,32.50
2022-09-01T03:36:33.552Z,30.67
2022-09-01T03:39:01.149Z,27.50
2022-09-01T03:41:31.081Z,25.52
2022-09-01T03:43:59.548Z,27.60
2022-09-01T03:46:36.449Z,25.70
2022-09-01T03:49:07.607Z,22.55
2022-09-01T03:51:39.383Z,25.23
2022-09-01T03:54:08.435Z,30.00
2022-09-01T03:56:35.800Z,26.45
2022-09-01T03:59:02.932Z,28.33
2022-09-01T04:01:38.195Z,32.33
2022-09-01T04:04:06.821Z,43.15
2022-09-01T04:06:36.947Z,41.55
2022-09-01T04:09:03.998Z,53.88
2022-09-01T04:11:33.707Z,82.40
2022-09-01T04:14:02.139Z,64.60
2022-09-01T04:16:53.420Z,60.72
2022-09-01T04:19:26.840Z,40.17
2022-09-01T04:22:02.130Z,35.22
2022-09-01T04:24:49.378Z,35.13
2022-09-01T04:27:18.462Z,33.72
2022-09-01T04:29:48.670Z,33.17
2022-09-01T04:32:17.182Z,36.50
2022-09-01T04:34:50.212Z,34.78
2022-09-01T04:37:22.267Z,47.95
2022-09-01T04:40:08.082Z,43.40
2022-09-01T04:42:35.162Z,40.92
2022-09-01T04:45:10.572Z,50.10
